Time;durP1;ratioP1;P1;durP2;ratioP2;P2;SDS_P1;SDS_P2;PMS_P1;PMS_P2;Temp;Humidity;BMP_temperature;BMP_pressure;BME280_temperature;BME280_humidity;BME280_pressure;Samples;Min_cycle;Max_cycle;Signal;HPM_P1;HPM_P2
2024/02/13 00:00:11;;;;;;;2.57;2.37;;;;;;;19.28;50.87;97175.25;5033228;28;20618;-25
2024/02/13 00:02:38;;;;;;;2.20;2.00;;;;;;;19.28;50.82;97182.91;5038556;28;20217;-25
2024/02/13 00:05:08;;;;;;;3.13;2.50;;;;;;;19.28;50.89;97179.47;5037665;28;20412;-25
2024/02/13 00:07:36;;;;;;;2.77;2.53;;;;;;;19.28;50.91;97182.03;5034591;28;20224;-25
2024/02/13 00:10:06;;;;;;;2.60;2.40;;;;;;;19.28;50.95;97187.13;5032275;28;20215;-27
2024/02/13 00:12:33;;;;;;;2.43;2.23;;;;;;;19.27;51.23;97185.41;5029854;28;20206;-33
2024/02/13 00:15:00;;;;;;;2.40;2.20;;;;;;;19.27;51.04;97191.34;5030601;28;20261;-26
2024/02/13 00:17:30;;;;;;;3.60;2.27;;;;;;;19.27;51.02;97200.69;5034207;28;20221;-25
2024/02/13 00:19:57;;;;;;;2.43;2.23;;;;;;;19.26;50.93;97199.78;5025483;28;20209;-27
2024/02/13 00:22:23;;;;;;;2.40;2.20;;;;;;;19.26;50.95;97211.66;5032168;28;20213;-27
2024/02/13 00:24:50;;;;;;;3.33;2.20;;;;;;;19.26;51.02;97221.84;5039060;28;20197;-27
2024/02/13 00:27:18;;;;;;;2.70;2.50;;;;;;;19.26;51.15;97222.72;5040712;28;20232;-28
2024/02/13 00:29:44;;;;;;;2.30;2.10;;;;;;;19.27;51.26;97226.16;5040531;28;20596;-25
2024/02/13 00:32:12;;;;;;;2.20;2.00;;;;;;;19.28;50.98;97230.44;5037376;28;20208;-25
2024/02/13 00:34:39;;;;;;;2.90;2.13;;;;;;;19.28;50.75;97230.44;5036160;28;20221;-26
2024/02/13 00:37:06;;;;;;;2.83;2.40;;;;;;;19.28;50.97;97238.09;5038857;28;20690;-30
2024/02/13 00:39:33;;;;;;;2.67;2.30;;;;;;;19.27;50.85;97242.31;5041306;28;20228;-27
2024/02/13 00:42:02;;;;;;;2.33;2.10;;;;;;;19.27;50.99;97242.31;5037328;28;20206;-25
2024/02/13 00:44:29;;;;;;;2.53;2.33;;;;;;;19.28;50.96;97248.28;5037626;28;20213;-26
2024/02/13 00:46:57;;;;;;;2.47;2.27;;;;;;;19.27;50.96;97241.44;5035931;28;20289;-25
2024/02/13 00:49:23;;;;;;;2.17;2.03;;;;;;;19.28;50.89;97240.63;5038414;28;20211;-25
2024/02/13 00:51:50;;;;;;;2.20;2.00;;;;;;;19.27;50.96;97254.19;5035718;28;20205;-25
2024/02/13 00:54:17;;;;;;;2.63;2.13;;;;;;;19.27;50.83;97257.59;5038851;28;20671;-28
2024/02/13 00:56:43;;;;;;;2.30;2.10;;;;;;;19.27;51.02;97262.69;5036604;28;20656;-26
2024/02/13 00:59:10;;;;;;;2.20;2.00;;;;;;;19.26;50.92;97271.13;5039153;28;20232;-25
2024/02/13 01:01:37;;;;;;;2.00;1.80;;;;;;;19.26;51.09;97277.88;5034550;28;20268;-27
2024/02/13 01:04:06;;;;;;;2.47;2.20;;;;;;;19.27;50.96;97274.56;5033704;28;20201;-27
2024/02/13 01:06:33;;;;;;;2.80;2.20;;;;;;;19.18;51.24;97264.00;5034892;28;20201;-25
2024/02/13 01:09:03;;;;;;;2.67;2.30;;;;;;;19.27;51.19;97277.97;5033653;28;20233;-25
2024/02/13 01:11:29;;;;;;;2.30;2.10;;;;;;;19.27;51.14;97282.22;5033828;28;20223;-27
2024/02/13 01:13:56;;;;;;;2.20;2.00;;;;;;;19.28;51.61;97295.00;5039046;28;20583;-25
2024/02/13 01:16:23;;;;;;;2.40;2.20;;;;;;;19.28;50.98;97294.13;5034623;28;20201;-28
2024/02/13 01:18:51;;;;;;;2.10;2.00;;;;;;;19.28;51.13;97295.00;5031899;28;20264;-26
2024/02/13 01:21:18;;;;;;;2.27;2.07;;;;;;;19.27;51.00;97300.91;5035290;28;20461;-25
2024/02/13 01:23:46;;;;;;;2.40;2.20;;;;;;;19.27;50.47;97300.91;5035375;28;20198;-25
2024/02/13 01:26:13;;;;;;;2.20;2.00;;;;;;;19.21;50.92;97299.78;5039612;28;20606;-25
2024/02/13 01:28:40;;;;;;;2.37;2.10;;;;;;;19.27;50.97;97305.16;5037848;28;20303;-25
2024/02/13 01:31:07;;;;;;;2.43;2.23;;;;;;;19.26;51.02;97308.44;5041005;28;20201;-25
2024/02/13 01:33:33;;;;;;;2.40;2.20;;;;;;;19.26;51.12;97316.09;5033177;28;20235;-25
2024/02/13 01:36:01;;;;;;;3.37;2.30;;;;;;;19.25;51.04;97310.16;5034671;28;20205;-27
2024/02/13 01:38:30;;;;;;;1.97;1.87;;;;;;;19.25;51.12;97316.91;5034792;28;20229;-25
2024/02/13 01:40:56;;;;;;;2.20;2.00;;;;;;;19.26;51.51;97316.09;5035485;28;20208;-25
2024/02/13 01:43:24;;;;;;;2.20;2.00;;;;;;;19.18;51.24;97309.84;5033909;28;20210;-26
2024/02/13 01:45:55;;;;;;;1.80;1.70;;;;;;;19.27;51.09;97328.06;5039922;28;20283;-26
2024/02/13 01:48:25;;;;;;;2.43;2.10;;;;;;;19.25;51.04;97327.13;5036068;28;20303;-25
2024/02/13 01:50:52;;;;;;;2.00;1.87;;;;;;;19.26;51.00;97328.84;5040748;28;20207;-26
2024/02/13 01:53:21;;;;;;;2.00;1.90;;;;;;;19.27;51.05;97328.91;5036830;28;20205;-25
2024/02/13 01:55:50;;;;;;;2.10;2.00;;;;;;;19.28;51.02;97340.00;5039833;28;20541;-27
2024/02/13 01:58:19;;;;;;;2.57;2.23;;;;;;;19.27;51.07;97335.72;5036965;28;20222;-25
2024/02/13 02:00:47;;;;;;;2.10;1.97;;;;;;;19.27;51.05;97340.81;5033660;28;20677;-25
2024/02/13 02:03:14;;;;;;;2.30;2.10;;;;;;;19.27;51.25;97349.31;5034249;28;20201;-27
2024/02/13 02:05:41;;;;;;;2.37;2.17;;;;;;;19.26;50.98;97351.75;5034095;28;20201;-27
2024/02/13 02:08:08;;;;;;;2.00;1.90;;;;;;;19.26;51.15;97361.97;5031827;28;20503;-25
2024/02/13 02:10:34;;;;;;;2.20;2.00;;;;;;;19.26;51.07;97365.38;5034933;28;20205;-25
2024/02/13 02:13:01;;;;;;;2.57;2.37;;;;;;;19.25;50.64;97371.31;5032371;28;22987;-26
2024/02/13 02:15:28;;;;;;;2.20;2.00;;;;;;;19.25;51.27;97378.94;5031122;28;20268;-30
2024/02/13 02:17:54;;;;;;;2.20;2.00;;;;;;;19.25;51.12;97373.84;5034143;28;20221;-26
2024/02/13 02:20:24;;;;;;;2.17;1.97;;;;;;;19.26;51.23;97375.56;5035722;28;20569;-25
2024/02/13 02:22:51;;;;;;;2.30;2.10;;;;;;;19.26;51.17;97380.66;5032511;28;20201;-25
2024/02/13 02:25:18;;;;;;;2.30;2.10;;;;;;;19.27;51.15;97384.97;5032997;28;20263;-25
2024/02/13 02:27:45;;;;;;;2.30;2.10;;;;;;;19.27;51.07;97386.69;5033896;28;20221;-30
2024/02/13 02:30:13;;;;;;;1.90;1.80;;;;;;;19.28;51.05;97401.13;5025236;28;20197;-25
2024/02/13 02:32:40;;;;;;;2.07;1.97;;;;;;;19.27;51.06;97391.78;5046129;28;20201;-25
2024/02/13 02:35:07;;;;;;;2.10;2.00;;;;;;;19.26;50.98;97393.41;5035157;28;20278;-25
2024/02/13 02:37:36;;;;;;;2.30;2.10;;;;;;;19.26;51.07;97402.72;5040997;28;20278;-25
2024/02/13 02:40:04;;;;;;;2.77;1.90;;;;;;;19.26;51.03;97402.72;5036910;28;20296;-25
2024/02/13 02:42:31;;;;;;;2.27;2.07;;;;;;;19.25;51.55;97399.31;5038679;28;20208;-25
2024/02/13 02:44:59;;;;;;;2.43;1.80;;;;;;;19.26;51.08;97415.47;5036132;28;20657;-28
2024/02/13 02:47:25;;;;;;;2.17;2.07;;;;;;;19.25;51.25;97412.06;5037719;28;20256;-25
2024/02/13 02:49:52;;;;;;;2.43;2.23;;;;;;;19.25;51.00;97411.19;5037616;28;20667;-25
2024/02/13 02:52:19;;;;;;;2.67;1.90;;;;;;;19.25;51.14;97414.63;5032935;28;20202;-25
2024/02/13 02:54:46;;;;;;;2.23;1.90;;;;;;;19.25;51.00;97421.38;5034370;28;20225;-29
2024/02/13 02:57:12;;;;;;;2.10;2.00;;;;;;;19.25;50.73;97427.34;5037100;28;20285;-29
2024/02/13 02:59:39;;;;;;;2.73;2.13;;;;;;;19.24;51.31;97433.22;5031654;28;20260;-25
2024/02/13 03:02:07;;;;;;;2.20;2.00;;;;;;;18.51;50.94;97304.03;5038404;28;20210;-25
2024/02/13 03:04:35;;;;;;;2.00;1.90;;;;;;;19.25;50.98;97437.53;5031450;28;20240;-28
2024/02/13 03:07:03;;;;;;;2.10;1.80;;;;;;;19.24;51.04;97440.88;5031096;28;20201;-25
2024/02/13 03:09:30;;;;;;;2.20;2.00;;;;;;;19.24;51.25;97438.34;5037345;28;20210;-25
2024/02/13 03:11:56;;;;;;;2.00;1.90;;;;;;;19.25;51.08;97437.53;5031322;28;20263;-25
2024/02/13 03:14:23;;;;;;;2.30;2.10;;;;;;;19.26;50.99;97449.47;5039341;28;20223;-27
2024/02/13 03:16:50;;;;;;;2.20;2.00;;;;;;;19.26;51.06;97449.47;5038259;28;20287;-25
2024/02/13 03:19:17;;;;;;;2.00;1.90;;;;;;;19.27;50.96;97460.56;5038823;28;20704;-27
2024/02/13 03:21:43;;;;;;;2.13;1.87;;;;;;;19.27;50.93;97452.91;5031942;28;20208;-25
2024/02/13 03:24:10;;;;;;;2.10;1.90;;;;;;;19.27;51.04;97456.31;5032369;28;20197;-25
2024/02/13 03:26:36;;;;;;;1.97;1.87;;;;;;;19.27;51.19;97458.84;5028255;28;20260;-25
2024/02/13 03:29:03;;;;;;;1.80;1.70;;;;;;;19.27;51.20;97461.41;5042201;28;20270;-28
2024/02/13 03:31:30;;;;;;;1.90;1.80;;;;;;;19.28;51.19;97462.28;5031366;28;20202;-25
2024/02/13 03:33:56;;;;;;;2.30;2.10;;;;;;;19.28;50.98;97469.94;5026376;28;20232;-25
2024/02/13 03:36:23;;;;;;;1.97;1.80;;;;;;;19.28;50.88;97470.81;5023534;28;20308;-25
2024/02/13 03:38:53;;;;;;;1.93;1.83;;;;;;;19.27;51.01;97479.25;5033092;28;20244;-31
2024/02/13 03:41:20;;;;;;;2.13;1.93;;;;;;;19.27;51.13;97476.69;5029783;28;20209;-25
2024/02/13 03:43:49;;;;;;;1.93;1.83;;;;;;;19.27;51.22;97479.25;5031921;28;20201;-25
2024/02/13 03:46:15;;;;;;;1.77;1.67;;;;;;;19.28;51.06;97475.03;5036746;28;20631;-25
2024/02/13 03:48:42;;;;;;;2.10;1.90;;;;;;;19.28;51.32;97482.66;5035480;28;20316;-25
2024/02/13 03:51:09;;;;;;;2.20;2.00;;;;;;;19.26;51.07;97487.69;5037017;28;20252;-26
2024/02/13 03:53:35;;;;;;;2.00;1.90;;;;;;;19.19;51.09;97477.19;5029842;28;20649;-25
2024/02/13 03:56:02;;;;;;;1.80;1.70;;;;;;;19.25;50.98;97491.03;5038682;28;20229;-26
2024/02/13 03:58:29;;;;;;;2.07;1.87;;;;;;;19.25;51.21;97492.72;5042660;28;20247;-27
2024/02/13 04:00:55;;;;;;;1.80;1.70;;;;;;;19.24;50.89;97496.94;5045874;28;20668;-25
2024/02/13 04:03:26;;;;;;;1.80;1.70;;;;;;;19.25;51.18;97498.69;5033762;28;20205;-25
2024/02/13 04:05:54;;;;;;;2.10;2.00;;;;;;;19.26;51.20;97505.50;5045143;28;20208;-25
2024/02/13 04:08:21;;;;;;;1.97;1.77;;;;;;;19.28;51.28;97513.25;5042859;28;20243;-25
2024/02/13 04:10:49;;;;;;;2.10;1.90;;;;;;;19.27;51.00;97517.47;5037718;28;20280;-25
2024/02/13 04:13:16;;;;;;;1.93;1.83;;;;;;;19.27;51.01;97521.72;5044188;28;20201;-25
2024/02/13 04:15:42;;;;;;;1.90;1.80;;;;;;;19.27;51.04;97521.72;5036311;28;20275;-25
2024/02/13 04:18:09;;;;;;;3.20;1.70;;;;;;;19.27;51.02;97521.72;5037068;28;20222;-25
2024/02/13 04:20:37;;;;;;;1.90;1.80;;;;;;;19.27;51.05;97529.34;5034422;28;20233;-27
2024/02/13 04:23:04;;;;;;;2.23;1.80;;;;;;;19.26;51.24;97528.44;5036393;28;20212;-25
2024/02/13 04:25:31;;;;;;;2.00;1.70;;;;;;;19.27;51.25;97526.81;5046577;28;20624;-25
2024/02/13 04:27:58;;;;;;;1.80;1.70;;;;;;;19.26;50.84;97531.00;5037371;28;20295;-25
2024/02/13 04:30:25;;;;;;;1.70;1.60;;;;;;;19.25;51.26;97531.81;5033675;28;20201;-26
2024/02/13 04:32:51;;;;;;;1.97;1.87;;;;;;;19.25;51.22;97533.47;5034020;28;20205;-26
2024/02/13 04:35:18;;;;;;;2.07;1.90;;;;;;;19.25;51.05;97539.44;5033826;28;20221;-27
2024/02/13 04:37:45;;;;;;;2.10;1.90;;;;;;;19.25;51.07;97544.56;5037509;28;20696;-26
2024/02/13 04:40:11;;;;;;;1.83;1.73;;;;;;;19.25;51.39;97549.66;5036461;28;20206;-25
2024/02/13 04:42:40;;;;;;;2.20;2.00;;;;;;;19.26;51.28;97553.03;5038989;28;20220;-25
2024/02/13 04:45:07;;;;;;;1.97;1.87;;;;;;;19.26;51.09;97553.03;5038087;28;20282;-26
2024/02/13 04:47:34;;;;;;;2.03;1.83;;;;;;;19.26;51.30;97553.03;5036632;28;20217;-25
2024/02/13 04:50:03;;;;;;;1.60;1.50;;;;;;;19.26;51.24;97561.56;5043183;28;20447;-27
2024/02/13 04:52:29;;;;;;;2.10;1.90;;;;;;;19.26;51.07;97560.69;5041525;28;20225;-26
2024/02/13 04:54:59;;;;;;;2.17;1.97;;;;;;;19.25;50.96;97559.84;5040617;28;20252;-25
2024/02/13 04:57:27;;;;;;;1.83;1.73;;;;;;;19.26;51.08;97561.56;5035719;28;20287;-25
2024/02/13 04:59:57;;;;;;;1.90;1.80;;;;;;;19.26;51.11;97564.09;5037460;28;20204;-29
2024/02/13 05:02:29;;;;;;;2.03;1.83;;;;;;;19.26;51.20;97560.69;5030304;28;20730;-27
2024/02/13 05:07:41;;;;;;;1.93;1.80;;;;;;;19.25;51.20;97570.03;5050899;22;20233;-25
2024/02/13 05:10:09;;;;;;;2.07;1.93;;;;;;;19.26;51.10;97575.97;5046622;28;20224;-33
2024/02/13 05:12:36;;;;;;;1.73;1.63;;;;;;;19.24;51.22;97568.25;5050415;28;20239;-34
2024/02/13 05:15:02;;;;;;;1.80;1.70;;;;;;;19.20;51.02;97565.53;5044671;28;20291;-26
2024/02/13 05:17:30;;;;;;;1.90;1.80;;;;;;;19.25;51.13;97580.22;5041259;28;20201;-25
2024/02/13 05:19:59;;;;;;;1.70;1.60;;;;;;;19.25;51.33;97580.22;5030509;28;20666;-25
2024/02/13 05:22:26;;;;;;;1.93;1.83;;;;;;;19.25;51.17;97574.25;5035801;28;20220;-25
2024/02/13 05:24:52;;;;;;;1.83;1.73;;;;;;;19.26;51.20;97578.53;5040549;28;20225;-25
2024/02/13 05:27:19;;;;;;;3.53;2.20;;;;;;;19.26;51.14;97574.31;5043756;28;20206;-25
2024/02/13 05:29:45;;;;;;;1.90;1.70;;;;;;;19.27;51.15;97582.84;5036694;28;20332;-25
2024/02/13 05:32:14;;;;;;;1.80;1.70;;;;;;;19.28;51.06;97580.38;5034186;28;20210;-24
2024/02/13 05:34:41;;;;;;;1.87;1.67;;;;;;;19.29;51.07;97584.66;5031180;28;20205;-25
2024/02/13 05:37:09;;;;;;;1.60;1.50;;;;;;;19.30;51.17;97588.91;5028385;28;20213;-26
2024/02/13 05:39:37;;;;;;;1.67;1.57;;;;;;;19.31;50.98;97584.72;5031175;28;20475;-25
2024/02/13 05:42:04;;;;;;;2.03;1.83;;;;;;;19.31;51.13;97588.13;5032449;28;20292;-25
2024/02/13 05:44:30;;;;;;;1.93;1.70;;;;;;;19.32;51.13;97586.44;5033455;28;20197;-25
2024/02/13 05:46:57;;;;;;;2.00;1.90;;;;;;;19.32;51.04;97591.53;5032918;28;20204;-25
2024/02/13 05:49:24;;;;;;;1.80;1.70;;;;;;;19.32;51.15;97589.88;5031304;28;20245;-29
2024/02/13 05:51:50;;;;;;;2.33;1.80;;;;;;;19.33;51.10;97598.38;5030156;28;20225;-25
2024/02/13 05:54:17;;;;;;;1.73;1.63;;;;;;;19.34;51.21;97595.91;5032972;28;20243;-24
2024/02/13 05:56:45;;;;;;;1.73;1.63;;;;;;;19.34;50.93;97600.13;5032866;28;20704;-25
2024/02/13 05:59:11;;;;;;;1.73;1.63;;;;;;;19.35;50.89;97600.16;5031143;28;20229;-24
2024/02/13 06:01:39;;;;;;;1.60;1.50;;;;;;;19.36;50.98;97607.00;5032825;28;20208;-25
2024/02/13 06:04:06;;;;;;;1.80;1.70;;;;;;;19.37;50.97;97612.97;5037754;28;20732;-26
2024/02/13 06:06:37;;;;;;;3.20;1.77;;;;;;;19.38;50.97;97614.69;5034316;28;20206;-25
2024/02/13 06:09:04;;;;;;;3.57;2.10;;;;;;;19.39;50.81;97616.47;5027893;28;20257;-24
2024/02/13 06:11:34;;;;;;;5.70;2.17;;;;;;;19.39;50.71;97619.84;5032985;28;20201;-24
2024/02/13 06:14:01;;;;;;;3.63;2.20;;;;;;;19.40;50.43;97618.19;5032253;28;20256;-25
2024/02/13 06:16:27;;;;;;;2.97;2.10;;;;;;;19.40;49.82;97620.75;5026730;28;20217;-25
2024/02/13 06:18:54;;;;;;;7.30;2.40;;;;;;;19.39;49.11;97626.66;5033272;28;20219;-24
2024/02/13 06:21:21;;;;;;;4.63;2.67;;;;;;;19.37;48.12;97630.81;5031973;28;20259;-25
2024/02/13 06:23:51;;;;;;;4.50;2.63;;;;;;;19.35;48.78;97633.31;5032688;28;20213;-25
2024/02/13 06:26:19;;;;;;;7.17;2.30;;;;;;;19.34;48.06;97636.66;5032247;28;20718;-26
2024/02/13 06:28:45;;;;;;;4.57;2.43;;;;;;;19.36;48.08;97641.81;5032642;28;20253;-25
2024/02/13 06:31:12;;;;;;;4.90;2.63;;;;;;;19.34;47.85;97639.22;5040842;28;20202;-25
2024/02/13 06:33:39;;;;;;;3.73;2.70;;;;;;;19.33;47.12;97645.09;5026350;28;20252;-26
2024/02/13 06:36:06;;;;;;;8.23;2.90;;;;;;;19.32;46.57;97650.13;5032038;28;20415;-29
2024/02/13 06:38:34;;;;;;;6.70;3.23;;;;;;;19.31;46.70;97654.38;5028062;28;20603;-25
2024/02/13 06:41:05;;;;;;;5.73;2.90;;;;;;;19.30;46.70;97655.16;5036371;28;20202;-25
2024/02/13 06:43:34;;;;;;;8.47;3.00;;;;;;;19.30;46.13;97661.97;5032303;28;20236;-25
2024/02/13 06:46:02;;;;;;;5.77;2.90;;;;;;;19.31;45.86;97666.25;5031973;28;20739;-26
2024/02/13 06:48:28;;;;;;;3.77;2.40;;;;;;;19.31;46.09;97666.25;5034332;28;20308;-29
2024/02/13 06:50:55;;;;;;;4.80;2.87;;;;;;;19.30;46.32;97673.00;5032155;28;20259;-25
2024/02/13 06:53:22;;;;;;;3.83;2.70;;;;;;;19.31;46.65;97679.88;5036029;28;20237;-25
2024/02/13 06:55:49;;;;;;;6.33;2.87;;;;;;;19.30;47.09;97678.09;5032092;28;20217;-26
2024/02/13 06:58:17;;;;;;;6.00;3.10;;;;;;;19.30;47.19;97680.66;5035688;28;20225;-26
2024/02/13 07:00:44;;;;;;;5.07;2.73;;;;;;;19.31;47.19;97689.19;5032093;28;20198;-25
2024/02/13 07:03:11;;;;;;;4.50;3.10;;;;;;;19.32;47.39;97683.25;5041078;28;20258;-26
2024/02/13 07:05:37;;;;;;;3.73;2.73;;;;;;;19.28;47.16;97683.97;5040081;28;20572;-25
2024/02/13 07:08:05;;;;;;;5.93;2.90;;;;;;;19.33;47.47;97685.03;5036752;28;20711;-30
2024/02/13 07:10:32;;;;;;;5.20;2.70;;;;;;;19.33;47.63;97692.66;5038901;28;20201;-26
2024/02/13 07:12:59;;;;;;;5.20;3.10;;;;;;;19.33;47.74;97690.13;5031938;28;20237;-25
2024/02/13 07:15:25;;;;;;;6.57;3.23;;;;;;;19.33;47.73;97701.16;5033195;28;20275;-25
2024/02/13 07:17:52;;;;;;;3.93;2.50;;;;;;;19.34;47.92;97702.03;5031308;28;20213;-24
2024/02/13 07:20:27;;;;;;;4.20;2.70;;;;;;;19.34;48.04;97702.94;5039962;28;20204;-25
2024/02/13 07:22:54;;;;;;;4.07;2.40;;;;;;;19.36;48.11;97708.94;5031922;28;20197;-28
2024/02/13 07:25:21;;;;;;;4.63;3.07;;;;;;;19.37;48.11;97707.25;5031408;28;20210;-25
2024/02/13 07:27:49;;;;;;;4.30;2.70;;;;;;;19.37;48.11;97715.78;5037836;28;20747;-25
2024/02/13 07:30:16;;;;;;;4.10;2.60;;;;;;;19.38;48.29;97719.19;5035425;28;20590;-26
2024/02/13 07:32:44;;;;;;;4.33;2.60;;;;;;;19.38;48.39;97725.16;5031154;28;20688;-29
2024/02/13 07:35:11;;;;;;;4.33;2.53;;;;;;;19.38;48.17;97721.72;5041984;28;20196;-25
2024/02/13 07:37:38;;;;;;;7.13;2.80;;;;;;;19.38;48.31;97721.72;5030431;28;20267;-24
2024/02/13 07:40:05;;;;;;;4.83;2.60;;;;;;;19.39;48.24;97723.50;5033789;28;20563;-24
2024/02/13 07:42:32;;;;;;;3.93;2.50;;;;;;;19.38;48.07;97714.97;5035126;28;20276;-25
2024/02/13 07:44:59;;;;;;;4.97;2.83;;;;;;;19.38;46.54;97729.38;5030747;28;20193;-30
2024/02/13 07:47:26;;;;;;;4.83;3.10;;;;;;;19.36;47.09;97725.94;5032523;28;20193;-24
2024/02/13 07:49:53;;;;;;;3.47;2.43;;;;;;;19.36;47.47;97723.38;5034305;28;20274;-27
2024/02/13 07:52:20;;;;;;;4.37;2.83;;;;;;;19.37;47.65;97730.19;5032091;28;20621;-26
2024/02/13 07:54:47;;;;;;;4.23;2.67;;;;;;;19.37;47.72;97722.56;5035468;28;20636;-25
2024/02/13 07:57:16;;;;;;;4.07;2.83;;;;;;;19.37;47.89;97737.84;5037379;28;20217;-25
2024/02/13 07:59:44;;;;;;;4.33;2.60;;;;;;;19.37;47.89;97731.09;5043034;28;20268;-24
2024/02/13 08:02:15;;;;;;;4.60;2.60;;;;;;;19.37;47.89;97733.63;5036710;28;20201;-25
2024/02/13 08:04:41;;;;;;;3.67;2.60;;;;;;;19.38;47.97;97735.38;5023506;28;20202;-25
2024/02/13 08:07:08;;;;;;;3.60;2.30;;;;;;;19.38;48.05;97734.47;5021855;28;20225;-25
2024/02/13 08:09:36;;;;;;;3.43;2.23;;;;;;;19.38;48.22;97743.00;5031040;28;20240;-34
2024/02/13 08:12:04;;;;;;;2.93;2.37;;;;;;;19.37;48.14;97746.38;5034869;28;20253;-25
2024/02/13 08:14:32;;;;;;;3.40;2.53;;;;;;;19.39;48.25;97746.44;5031001;28;20260;-25
2024/02/13 08:16:59;;;;;;;5.90;2.60;;;;;;;19.39;48.15;97746.44;5030942;28;20316;-25
2024/02/13 08:19:26;;;;;;;3.13;2.33;;;;;;;19.38;48.15;97743.00;5032361;28;20226;-25
2024/02/13 08:21:52;;;;;;;4.17;2.60;;;;;;;19.38;48.24;97745.56;5042466;28;20193;-24
2024/02/13 08:24:19;;;;;;;4.77;2.70;;;;;;;19.38;47.92;97747.22;5031150;28;20197;-25
2024/02/13 08:26:48;;;;;;;4.77;2.77;;;;;;;19.37;48.26;97746.38;5038222;28;20212;-26
2024/02/13 08:29:15;;;;;;;3.03;2.40;;;;;;;19.38;48.32;97748.09;5030523;28;20704;-25
2024/02/13 08:31:41;;;;;;;3.00;2.50;;;;;;;19.38;48.46;97744.69;5030566;28;20198;-26
2024/02/13 08:34:08;;;;;;;2.97;2.30;;;;;;;19.39;48.50;97743.88;5030849;28;20289;-24
2024/02/13 08:36:37;;;;;;;3.27;2.37;;;;;;;19.40;48.50;97740.53;5035909;28;20762;-25
2024/02/13 08:39:03;;;;;;;3.27;2.27;;;;;;;19.39;48.22;97742.19;5032455;28;20235;-25
2024/02/13 08:41:31;;;;;;;4.70;2.50;;;;;;;19.39;48.69;97744.72;5039768;28;20194;-25
2024/02/13 08:43:58;;;;;;;4.77;2.70;;;;;;;19.39;48.50;97746.44;5036776;28;20197;-25
2024/02/13 08:46:25;;;;;;;3.27;2.30;;;;;;;19.39;48.83;97746.44;5034848;28;20210;-25
2024/02/13 08:48:52;;;;;;;2.80;2.10;;;;;;;19.38;48.60;97755.75;5034271;28;20252;-24
2024/02/13 08:51:19;;;;;;;3.13;2.20;;;;;;;19.40;48.13;97754.16;5038751;28;20204;-25
2024/02/13 08:53:46;;;;;;;3.10;2.50;;;;;;;19.29;48.54;97740.06;5034263;28;20198;-25
2024/02/13 08:56:13;;;;;;;2.83;2.50;;;;;;;19.39;48.58;97751.53;5025770;28;20230;-26
2024/02/13 08:58:40;;;;;;;3.43;2.43;;;;;;;19.41;48.61;97760.09;5034421;28;20217;-24
2024/02/13 09:01:07;;;;;;;3.03;2.47;;;;;;;19.40;48.66;97753.25;5042658;28;20617;-25
2024/02/13 09:03:34;;;;;;;4.83;2.17;;;;;;;19.40;48.63;97756.69;5032266;28;20642;-25
2024/02/13 09:06:04;;;;;;;4.23;2.40;;;;;;;19.40;48.74;97758.38;5034915;28;20198;-26
2024/02/13 09:08:32;;;;;;;3.70;2.40;;;;;;;19.41;48.73;97760.09;5023809;28;20635;-25
2024/02/13 09:10:59;;;;;;;3.37;2.47;;;;;;;19.41;48.71;97765.19;5027452;28;20209;-25
2024/02/13 09:13:28;;;;;;;3.13;2.27;;;;;;;19.40;48.77;97761.78;5029522;28;20579;-25
2024/02/13 09:15:55;;;;;;;4.70;2.20;;;;;;;19.41;48.84;97762.63;5022214;28;20337;-24
2024/02/13 09:18:22;;;;;;;3.63;2.50;;;;;;;19.42;48.82;97764.41;5009716;28;20221;-25
2024/02/13 09:20:52;;;;;;;2.90;2.30;;;;;;;19.41;48.89;97765.19;5025212;28;20243;-25
2024/02/13 09:23:19;;;;;;;2.27;2.07;;;;;;;19.42;48.78;97772.06;5032629;28;20198;-24
2024/02/13 09:25:49;;;;;;;3.03;2.30;;;;;;;19.41;48.77;97771.16;5036535;28;20581;-24
2024/02/13 09:28:16;;;;;;;3.80;1.93;;;;;;;19.40;48.74;97774.53;5033723;28;20226;-24
2024/02/13 09:30:44;;;;;;;2.43;2.20;;;;;;;19.42;48.66;97769.50;5027743;28;20203;-25
2024/02/13 09:33:10;;;;;;;2.70;2.03;;;;;;;19.41;48.95;97768.63;5038133;28;20284;-26
2024/02/13 09:35:37;;;;;;;1.97;1.80;;;;;;;19.37;48.83;97769.31;5025233;28;20252;-25
2024/02/13 09:38:04;;;;;;;2.60;1.93;;;;;;;19.41;48.87;97763.53;5029242;28;20332;-28
2024/02/13 09:40:32;;;;;;;2.43;2.00;;;;;;;19.42;48.99;97762.69;5031576;28;20206;-25
2024/02/13 09:42:59;;;;;;;2.73;2.17;;;;;;;19.38;49.06;97762.50;5031304;28;20217;-25
2024/02/13 09:45:26;;;;;;;3.37;2.40;;;;;;;19.42;48.86;97765.25;5023803;28;20204;-23
2024/02/13 09:47:53;;;;;;;2.13;1.93;;;;;;;19.36;48.98;97767.53;5029392;28;20236;-25
2024/02/13 09:50:20;;;;;;;2.10;1.80;;;;;;;19.29;48.95;97755.38;5012885;28;20201;-24
2024/02/13 09:52:55;;;;;;;2.53;2.03;;;;;;;19.27;49.12;97756.13;5007530;28;20205;-25
2024/02/13 09:55:22;;;;;;;3.00;2.00;;;;;;;19.42;48.80;97778.00;5006982;28;20621;-26
2024/02/13 09:57:49;;;;;;;2.13;1.93;;;;;;;19.43;48.88;97776.31;5028129;28;20218;-25
2024/02/13 10:00:17;;;;;;;2.33;1.90;;;;;;;19.42;48.99;97783.09;5027095;28;20228;-25
2024/02/13 10:02:44;;;;;;;2.07;1.87;;;;;;;19.43;49.10;97781.44;5036805;28;20241;-26
2024/02/13 10:05:11;;;;;;;2.13;1.90;;;;;;;19.43;48.91;97778.88;5036709;28;20699;-25
2024/02/13 10:07:38;;;;;;;2.37;1.90;;;;;;;19.43;49.01;97783.97;5033579;28;20233;-25
2024/02/13 10:10:11;;;;;;;3.03;1.97;;;;;;;19.43;49.07;97773.78;5027385;28;20209;-24
2024/02/13 10:12:48;;;;;;;2.47;2.10;;;;;;;19.41;48.94;97778.81;5032250;28;20205;-26
2024/02/13 10:15:14;;;;;;;2.13;1.93;;;;;;;19.41;49.05;97780.47;5026914;28;20292;-26
2024/02/13 10:17:42;;;;;;;3.20;1.93;;;;;;;19.42;49.11;97787.34;5039002;28;20226;-24
2024/02/13 10:20:10;;;;;;;2.10;1.90;;;;;;;19.41;49.07;97783.91;5024163;28;20202;-25
2024/02/13 10:22:47;;;;;;;2.27;1.90;;;;;;;19.42;49.07;97780.53;5031604;28;20565;-25
2024/02/13 10:25:17;;;;;;;4.17;2.00;;;;;;;19.42;49.33;97780.53;5023159;28;20209;-25
2024/02/13 10:27:49;;;;;;;2.43;1.93;;;;;;;19.44;49.21;97775.50;5031083;28;20708;-26
2024/02/13 10:30:25;;;;;;;2.57;1.87;;;;;;;19.42;49.14;97772.06;5028716;28;20205;-25
2024/02/13 10:32:52;;;;;;;2.23;2.03;;;;;;;19.43;49.18;97781.44;5035543;28;20197;-25
2024/02/13 10:35:22;;;;;;;2.60;2.00;;;;;;;19.43;49.21;97776.31;5028071;28;20554;-25
2024/02/13 10:37:50;;;;;;;2.20;1.90;;;;;;;19.44;49.15;97773.84;5027818;28;20719;-25
2024/02/13 10:40:26;;;;;;;2.67;2.00;;;;;;;19.45;49.06;97780.66;5031763;28;20209;-27
2024/02/13 10:42:56;;;;;;;2.57;2.10;;;;;;;19.46;48.94;97773.91;5033985;28;20259;-25
2024/02/13 10:45:25;;;;;;;3.10;1.80;;;;;;;19.47;49.07;97771.41;5020983;28;20206;-25
2024/02/13 10:47:54;;;;;;;4.00;2.10;;;;;;;19.48;49.10;97773.16;5028409;28;20213;-31
2024/02/13 10:50:24;;;;;;;3.10;2.00;;;;;;;19.47;49.16;97776.50;5033956;28;20208;-25
2024/02/13 10:52:54;;;;;;;2.17;1.97;;;;;;;19.48;49.20;97778.25;5026470;28;20209;-25
2024/02/13 10:55:21;;;;;;;1.73;1.63;;;;;;;19.49;49.11;97776.59;5027005;28;20201;-25
2024/02/13 10:57:49;;;;;;;2.07;1.87;;;;;;;19.49;49.16;97774.03;5029979;28;20316;-26
2024/02/13 11:00:19;;;;;;;2.00;1.90;;;;;;;19.49;49.10;97764.72;5033421;28;20197;-26
2024/02/13 11:02:51;;;;;;;2.37;1.90;;;;;;;19.50;49.08;97774.09;5035834;28;20240;-25
2024/02/13 11:05:18;;;;;;;2.30;1.90;;;;;;;19.50;49.11;97774.09;5037981;28;20727;-25
2024/02/13 11:07:45;;;;;;;2.13;1.80;;;;;;;19.51;49.05;97772.44;5031153;28;20268;-25
2024/02/13 11:10:12;;;;;;;2.73;2.10;;;;;;;19.41;49.16;97760.97;5035224;23;20671;-25
2024/02/13 11:12:39;;;;;;;2.17;1.83;;;;;;;19.49;48.93;97772.38;4998739;28;20212;-26
2024/02/13 11:15:09;;;;;;;2.17;1.97;;;;;;;19.50;48.99;97776.66;5025520;28;20202;-24
2024/02/13 11:17:55;;;;;;;3.03;1.77;;;;;;;19.50;49.16;97771.53;5028087;28;20730;-25
2024/02/13 11:20:23;;;;;;;1.93;1.73;;;;;;;19.50;49.08;97771.53;5027140;28;20229;-26
2024/02/13 11:22:55;;;;;;;2.13;1.80;;;;;;;19.50;49.11;97769.00;5021577;28;20201;-25
2024/02/13 11:25:34;;;;;;;2.63;1.80;;;;;;;19.41;49.12;97755.00;5019653;28;20589;-25
2024/02/13 11:28:08;;;;;;;1.73;1.60;;;;;;;19.49;49.12;97769.81;5024542;28;20676;-25
2024/02/13 11:30:37;;;;;;;2.77;1.90;;;;;;;19.50;49.20;97775.75;5008099;28;20635;-25
2024/02/13 11:33:08;;;;;;;2.70;1.80;;;;;;;19.50;49.11;97774.09;5031256;28;20228;-25
2024/02/13 11:35:44;;;;;;;2.20;1.80;;;;;;;19.47;49.34;97763.78;5022504;28;20279;-24
2024/02/13 11:38:19;;;;;;;2.10;1.73;;;;;;;19.49;49.36;97761.28;5028827;28;20609;-26